San Sebastian, Spain

5:23 PM CEST on September 02, 2015 (GMT +0200)
San Sebastian | | Change Station
CLOSE
Current Station
Airport
Location: San Sebastian,
Elevation: 26 ft
Nearby Weather Stations

Elev 26 ft 43.36 °N, 1.79 °W | Updated 23 minutes ago

Partly Cloudy
Partly Cloudy
70 °F
Feels Like 70 °F
N
4
Wind Variable Wind from North

Today
High -- | Low -- °F
--% Chance of Precip.
Yesterday
High -- | Low -- °F
Precip. -- in
7:31 AM 8:41 PM
Waning Gibbous, 79% visible
Pressure 30.04 in
Visibility 6.2 miles
Clouds Few 4500 ft
Dew Point 55 °F
Humidity 60%
Rainfall 0.00 in
Snow Depth Not available.
UV 5 out of 12
Pollen Not available.
Air Quality Not available.
Flu Activity Not available.
METAR LESO 021500Z 36003KT 310V060 9999 FEW045 21/13 Q1017
Pressure 30.04 in
Visibility 6.2 miles
Clouds Few 4500 ft
Dew Point 55 °F
Humidity 60%
Rainfall 0.00 in
Snow Depth Not available.
UV 5 out of 12
Pollen Not available.
Air Quality Not available.
Flu Activity Not available.
METAR LESO 021500Z 36003KT 310V060 9999 FEW045 21/13 Q1017

10-Day Weather Forecast

×

Almanac

Astronomy

Sep. 02, 2015 Rise Set
Actual Time
Civil Twilight
Nautical Twilight
Astronomical Twilight
Moon
Length of Visible Light
Length of Day
Tomorrow will be .
, % of the Moon is Illuminated

Today's Extremes

Country Highs Country Lows

Community

WunderPhotos

Upload Photos

1,851,770 photos uploaded!

WunderBlogs® & News

Nearby

Air Quality

  Air Quality AQ Index Pollutant
Not available.

Snow Depth

Station Depth Elevation

Earthquake Activity

City Distance Mag. Time & Date
Minimum magnitude displayed is 2.5.

Coastal Water Temperatures

Place Temperature

Stations

Nearby Weather Stations

Station Location Temp. Windchill Dew Point Humidity Wind Precip. Elev Updated Type